Haines Airport
PAHN : now visible

Airfield :











YOU CAN JOIN US ON...

 
LOGIN :

Register | Disclaimer

   EN    FR    IT 

 









Legend :    VFR   Marginal VFR   IFR   Intensive IFR   Very Intensive IFR
Visi :
Ceiling :
>= 8 km
>= 3000ft
5 to 8 km
1000 to 3000 ft
1500m to 5 km
500 to 1000 ft
800 to 1500m
200 to 500 ft
< 800m
< 200 ft
Symbols :   Thunderstorms  Fog  Heavy snow  Heavy precipitations  Wind > 20 kt






- Airport Elevation : 15 ft
- IATA code : HNS


PAHN - Haines

CURRENT METAR :
  • 280554Z AUTO 09011G21KT 10SM BKN100 03/M03 A2957 RMK SLP014 60002 T00281028 10028 20022 51004 TSNO VIA AUTODIAL

EXPIRED METARs :
  • 280454Z AUTO 10009G18KT 10SM FEW070 FEW090 BKN100 03/M02 A2956 RMK SLP013 T00281017 TSNO VIA AUTODIAL
  • 280354Z AUTO 09010G19KT 10SM FEW014 OVC075 03/M01 A2956 RMK PK WND 10027/0322 SLP013 T00281006 TSNO VIA AUTODIAL

TAF PAHN
Valid from the 28 at 06:00 until the 29 at 06:00 UTC


280547Z 2806/2906 10010G20KT P6SM VCSH FEW014 BKN090
TEMPO 2808/2812 6SM -SHRASN BKN014 OVC070
FM281200 11015G25KT 4SM -SHSN OVC015
FM281800 09010KT P6SM VCSH FEW015 OVC050 AMD LTD TO CLD VIS AND WIND



MET'MAP, your aeronautical weather chart ! - Copyright ORBIFLY December 2007 - Disclaimer

ORBIFLY MET'MAP TEAM :

Programming & Development : Alexandra Zaïnal
Concept & original design : Baudouin d'Aumeries
Assistance for programming : Marc-Olivier Méhu
Technical & hardware support : Manuel Goepfert

Contact : metmap@orbifly.com




SOURCES & CREDITS :

   NOAA       Earth
Advisory